sensor_id;sensor_type;location;lat;lon;timestamp;temperature;humidity
48860;DHT22;34679;51.436;-2.518;2022-12-11T00:02:01;-2.10;99.90
48860;DHT22;34679;51.436;-2.518;2022-12-11T00:04:27;-2.10;99.90
48860;DHT22;34679;51.436;-2.518;2022-12-11T00:06:53;-2.10;99.90
48860;DHT22;34679;51.436;-2.518;2022-12-11T00:09:19;-2.10;99.90
48860;DHT22;34679;51.436;-2.518;2022-12-11T00:11:46;-2.10;99.90
48860;DHT22;34679;51.436;-2.518;2022-12-11T00:14:12;-2.20;99.90
48860;DHT22;34679;51.436;-2.518;2022-12-11T00:16:39;-2.10;99.90
48860;DHT22;34679;51.436;-2.518;2022-12-11T00:19:05;-2.10;99.90
48860;DHT22;34679;51.436;-2.518;2022-12-11T00:21:31;-2.00;99.90
48860;DHT22;34679;51.436;-2.518;2022-12-11T00:23:56;-2.10;99.90
48860;DHT22;34679;51.436;-2.518;2022-12-11T00:26:22;-2.30;99.90
48860;DHT22;34679;51.436;-2.518;2022-12-11T00:28:52;-2.10;99.90
48860;DHT22;34679;51.436;-2.518;2022-12-11T00:31:18;-2.00;99.90
48860;DHT22;34679;51.436;-2.518;2022-12-11T00:33:45;-2.20;99.90
48860;DHT22;34679;51.436;-2.518;2022-12-11T00:36:21;-2.10;99.90
48860;DHT22;34679;51.436;-2.518;2022-12-11T00:38:48;-1.90;99.90
48860;DHT22;34679;51.436;-2.518;2022-12-11T00:41:14;-2.10;99.90
48860;DHT22;34679;51.436;-2.518;2022-12-11T00:43:40;-2.10;99.90
48860;DHT22;34679;51.436;-2.518;2022-12-11T00:46:06;-2.20;99.90
48860;DHT22;34679;51.436;-2.518;2022-12-11T00:48:32;-2.20;99.90
48860;DHT22;34679;51.436;-2.518;2022-12-11T00:50:58;-2.20;99.90
48860;DHT22;34679;51.436;-2.518;2022-12-11T00:53:24;-2.30;99.90
48860;DHT22;34679;51.436;-2.518;2022-12-11T00:55:49;-2.20;99.90
48860;DHT22;34679;51.436;-2.518;2022-12-11T00:58:15;-2.20;99.90
48860;DHT22;34679;51.436;-2.518;2022-12-11T01:00:41;-2.10;99.90
48860;DHT22;34679;51.436;-2.518;2022-12-11T01:03:09;-2.10;99.90
48860;DHT22;34679;51.436;-2.518;2022-12-11T01:05:35;-2.00;99.90
48860;DHT22;34679;51.436;-2.518;2022-12-11T01:08:01;-1.90;99.90
48860;DHT22;34679;51.436;-2.518;2022-12-11T01:10:27;-2.00;99.90
48860;DHT22;34679;51.436;-2.518;2022-12-11T01:13:06;-2.00;99.90
48860;DHT22;34679;51.436;-2.518;2022-12-11T01:15:39;-2.10;99.90
48860;DHT22;34679;51.436;-2.518;2022-12-11T01:18:06;-2.00;99.90
48860;DHT22;34679;51.436;-2.518;2022-12-11T01:20:31;-1.90;99.90
48860;DHT22;34679;51.436;-2.518;2022-12-11T01:22:59;-1.90;99.90
48860;DHT22;34679;51.436;-2.518;2022-12-11T01:25:26;-2.10;99.90
48860;DHT22;34679;51.436;-2.518;2022-12-11T01:27:53;-2.10;99.90
48860;DHT22;34679;51.436;-2.518;2022-12-11T01:30:22;-2.10;99.90
48860;DHT22;34679;51.436;-2.518;2022-12-11T01:32:48;-2.10;99.90
48860;DHT22;34679;51.436;-2.518;2022-12-11T01:35:14;-2.20;99.90
48860;DHT22;34679;51.436;-2.518;2022-12-11T01:37:40;-2.20;99.90
48860;DHT22;34679;51.436;-2.518;2022-12-11T01:40:07;-2.10;99.90
48860;DHT22;34679;51.436;-2.518;2022-12-11T01:42:33;-2.20;99.90
48860;DHT22;34679;51.436;-2.518;2022-12-11T01:47:51;-2.20;99.90
48860;DHT22;34679;51.436;-2.518;2022-12-11T01:50:18;-2.20;99.90
48860;DHT22;34679;51.436;-2.518;2022-12-11T01:52:46;-2.30;99.90
48860;DHT22;34679;51.436;-2.518;2022-12-11T01:55:12;-2.30;99.90
48860;DHT22;34679;51.436;-2.518;2022-12-11T01:57:41;-2.40;99.90
48860;DHT22;34679;51.436;-2.518;2022-12-11T02:00:08;-2.30;99.90
48860;DHT22;34679;51.436;-2.518;2022-12-11T02:02:34;-2.20;99.90
48860;DHT22;34679;51.436;-2.518;2022-12-11T02:05:05;-2.20;99.90
48860;DHT22;34679;51.436;-2.518;2022-12-11T02:07:39;-2.20;99.90
48860;DHT22;34679;51.436;-2.518;2022-12-11T02:10:07;-2.30;99.90
48860;DHT22;34679;51.436;-2.518;2022-12-11T02:13:12;-2.30;99.90
48860;DHT22;34679;51.436;-2.518;2022-12-11T02:24:06;-2.10;99.90
48860;DHT22;34679;51.436;-2.518;2022-12-11T02:29:12;-2.00;99.90
48860;DHT22;34679;51.436;-2.518;2022-12-11T02:31:54;-2.00;99.90
48860;DHT22;34679;51.436;-2.518;2022-12-11T02:34:32;-2.00;99.90
48860;DHT22;34679;51.436;-2.518;2022-12-11T02:37:04;-1.90;99.90
48860;DHT22;34679;51.436;-2.518;2022-12-11T02:39:32;-1.90;99.90
48860;DHT22;34679;51.436;-2.518;2022-12-11T02:42:00;-1.80;99.90
48860;DHT22;34679;51.436;-2.518;2022-12-11T02:44:29;-1.80;99.90
48860;DHT22;34679;51.436;-2.518;2022-12-11T02:46:58;-1.70;99.90
48860;DHT22;34679;51.436;-2.518;2022-12-11T02:49:25;-1.70;99.90
48860;DHT22;34679;51.436;-2.518;2022-12-11T02:51:54;-1.60;99.90
48860;DHT22;34679;51.436;-2.518;2022-12-11T02:54:25;-1.50;99.90
48860;DHT22;34679;51.436;-2.518;2022-12-11T02:57:03;-1.40;99.90
48860;DHT22;34679;51.436;-2.518;2022-12-11T02:59:38;-1.30;99.90
48860;DHT22;34679;51.436;-2.518;2022-12-11T03:02:04;-1.20;99.90
48860;DHT22;34679;51.436;-2.518;2022-12-11T03:04:30;-1.10;99.90
48860;DHT22;34679;51.436;-2.518;2022-12-11T03:07:00;-1.10;99.90
48860;DHT22;34679;51.436;-2.518;2022-12-11T03:09:37;-1.00;99.90
48860;DHT22;34679;51.436;-2.518;2022-12-11T03:12:02;-1.00;99.90
48860;DHT22;34679;51.436;-2.518;2022-12-11T03:14:28;-1.00;99.90
48860;DHT22;34679;51.436;-2.518;2022-12-11T03:17:04;-0.90;99.90
48860;DHT22;34679;51.436;-2.518;2022-12-11T03:19:36;-0.90;99.90
48860;DHT22;34679;51.436;-2.518;2022-12-11T03:25:02;-1.00;99.90
48860;DHT22;34679;51.436;-2.518;2022-12-11T03:27:44;-1.00;99.90
48860;DHT22;34679;51.436;-2.518;2022-12-11T03:30:14;-1.00;99.90
48860;DHT22;34679;51.436;-2.518;2022-12-11T03:32:49;-1.00;99.90
48860;DHT22;34679;51.436;-2.518;2022-12-11T03:35:36;-1.00;99.90
48860;DHT22;34679;51.436;-2.518;2022-12-11T03:38:07;-1.10;99.90
48860;DHT22;34679;51.436;-2.518;2022-12-11T03:40:35;-1.20;99.90
48860;DHT22;34679;51.436;-2.518;2022-12-11T03:43:02;-1.20;99.90
48860;DHT22;34679;51.436;-2.518;2022-12-11T03:45:29;-1.30;99.90
48860;DHT22;34679;51.436;-2.518;2022-12-11T03:47:57;-1.30;99.90
48860;DHT22;34679;51.436;-2.518;2022-12-11T03:50:25;-1.20;99.90
48860;DHT22;34679;51.436;-2.518;2022-12-11T03:52:53;-1.20;99.90
48860;DHT22;34679;51.436;-2.518;2022-12-11T03:55:22;-1.20;99.90
48860;DHT22;34679;51.436;-2.518;2022-12-11T03:57:48;-1.30;99.90
48860;DHT22;34679;51.436;-2.518;2022-12-11T04:00:16;-1.30;99.90
48860;DHT22;34679;51.436;-2.518;2022-12-11T04:02:43;-1.20;99.90
48860;DHT22;34679;51.436;-2.518;2022-12-11T04:05:09;-1.20;99.90
48860;DHT22;34679;51.436;-2.518;2022-12-11T04:07:35;-1.40;99.90
48860;DHT22;34679;51.436;-2.518;2022-12-11T04:10:01;-1.20;99.90
48860;DHT22;34679;51.436;-2.518;2022-12-11T04:12:27;-1.30;99.90
48860;DHT22;34679;51.436;-2.518;2022-12-11T04:14:53;-1.30;99.90
48860;DHT22;34679;51.436;-2.518;2022-12-11T04:17:34;-1.30;99.90
48860;DHT22;34679;51.436;-2.518;2022-12-11T04:20:19;-1.20;99.90
48860;DHT22;34679;51.436;-2.518;2022-12-11T04:23:05;-1.20;99.90
48860;DHT22;34679;51.436;-2.518;2022-12-11T04:25:50;-1.20;99.90
48860;DHT22;34679;51.436;-2.518;2022-12-11T04:28:15;-1.20;99.90
48860;DHT22;34679;51.436;-2.518;2022-12-11T04:30:47;-1.20;99.90
48860;DHT22;34679;51.436;-2.518;2022-12-11T04:33:13;-1.10;99.90
48860;DHT22;34679;51.436;-2.518;2022-12-11T04:35:39;-1.10;99.90
48860;DHT22;34679;51.436;-2.518;2022-12-11T04:38:05;-1.00;99.90
48860;DHT22;34679;51.436;-2.518;2022-12-11T04:40:30;-1.00;99.90
48860;DHT22;34679;51.436;-2.518;2022-12-11T04:42:56;-0.90;99.90
48860;DHT22;34679;51.436;-2.518;2022-12-11T04:45:21;-0.90;99.90
48860;DHT22;34679;51.436;-2.518;2022-12-11T04:47:47;-0.80;99.90
48860;DHT22;34679;51.436;-2.518;2022-12-11T04:50:14;-0.80;99.90
48860;DHT22;34679;51.436;-2.518;2022-12-11T04:52:40;-0.80;99.90
48860;DHT22;34679;51.436;-2.518;2022-12-11T04:55:07;-0.80;99.90
48860;DHT22;34679;51.436;-2.518;2022-12-11T04:57:32;-0.80;99.90
48860;DHT22;34679;51.436;-2.518;2022-12-11T04:59:58;-0.70;99.90
48860;DHT22;34679;51.436;-2.518;2022-12-11T05:02:24;-0.70;99.90
48860;DHT22;34679;51.436;-2.518;2022-12-11T05:04:51;-0.70;99.90
48860;DHT22;34679;51.436;-2.518;2022-12-11T05:07:17;-0.70;99.90
48860;DHT22;34679;51.436;-2.518;2022-12-11T05:09:42;-0.70;99.90
48860;DHT22;34679;51.436;-2.518;2022-12-11T05:12:08;-0.60;99.90
48860;DHT22;34679;51.436;-2.518;2022-12-11T05:14:34;-0.70;99.90
48860;DHT22;34679;51.436;-2.518;2022-12-11T05:16:59;-0.80;99.90
48860;DHT22;34679;51.436;-2.518;2022-12-11T05:19:26;-0.80;99.90
48860;DHT22;34679;51.436;-2.518;2022-12-11T05:21:52;-0.80;99.90
48860;DHT22;34679;51.436;-2.518;2022-12-11T05:24:18;-0.80;99.90
48860;DHT22;34679;51.436;-2.518;2022-12-11T05:26:43;-0.80;99.90
48860;DHT22;34679;51.436;-2.518;2022-12-11T05:29:09;-0.80;99.90
48860;DHT22;34679;51.436;-2.518;2022-12-11T05:31:35;-0.90;99.90
48860;DHT22;34679;51.436;-2.518;2022-12-11T05:34:01;-0.80;99.90
48860;DHT22;34679;51.436;-2.518;2022-12-11T05:36:30;-0.80;99.90
48860;DHT22;34679;51.436;-2.518;2022-12-11T05:38:57;-0.70;99.90
48860;DHT22;34679;51.436;-2.518;2022-12-11T05:41:24;-0.90;99.90
48860;DHT22;34679;51.436;-2.518;2022-12-11T05:43:51;-1.00;99.90
48860;DHT22;34679;51.436;-2.518;2022-12-11T05:46:24;-0.80;99.90
48860;DHT22;34679;51.436;-2.518;2022-12-11T05:48:53;-0.70;99.90
48860;DHT22;34679;51.436;-2.518;2022-12-11T05:51:20;-0.70;99.90
48860;DHT22;34679;51.436;-2.518;2022-12-11T05:53:47;-0.80;99.90
48860;DHT22;34679;51.436;-2.518;2022-12-11T05:56:17;-0.80;99.90
48860;DHT22;34679;51.436;-2.518;2022-12-11T05:58:44;-0.80;99.90
48860;DHT22;34679;51.436;-2.518;2022-12-11T06:01:12;-0.80;99.90
48860;DHT22;34679;51.436;-2.518;2022-12-11T06:03:39;-0.70;99.90
48860;DHT22;34679;51.436;-2.518;2022-12-11T06:06:05;-0.70;99.90
48860;DHT22;34679;51.436;-2.518;2022-12-11T06:08:32;-0.70;99.90
48860;DHT22;34679;51.436;-2.518;2022-12-11T06:10:58;-0.50;99.90
48860;DHT22;34679;51.436;-2.518;2022-12-11T06:13:24;-0.80;99.90
48860;DHT22;34679;51.436;-2.518;2022-12-11T06:15:50;-0.70;99.90
48860;DHT22;34679;51.436;-2.518;2022-12-11T06:18:16;-0.60;99.90
48860;DHT22;34679;51.436;-2.518;2022-12-11T06:20:41;-0.60;99.90
48860;DHT22;34679;51.436;-2.518;2022-12-11T06:23:07;-0.60;99.90
48860;DHT22;34679;51.436;-2.518;2022-12-11T06:25:33;-0.70;99.90
48860;DHT22;34679;51.436;-2.518;2022-12-11T06:27:59;-0.70;99.90
48860;DHT22;34679;51.436;-2.518;2022-12-11T06:30:24;-0.50;99.90
48860;DHT22;34679;51.436;-2.518;2022-12-11T06:32:50;-0.60;99.90
48860;DHT22;34679;51.436;-2.518;2022-12-11T06:35:16;-0.60;99.90
48860;DHT22;34679;51.436;-2.518;2022-12-11T06:37:42;-0.50;99.90
48860;DHT22;34679;51.436;-2.518;2022-12-11T06:40:09;-0.50;99.90
48860;DHT22;34679;51.436;-2.518;2022-12-11T06:42:36;-0.60;99.90
48860;DHT22;34679;51.436;-2.518;2022-12-11T06:45:02;-0.60;99.90
48860;DHT22;34679;51.436;-2.518;2022-12-11T06:47:29;-0.70;99.90
48860;DHT22;34679;51.436;-2.518;2022-12-11T06:49:55;-0.60;99.90
48860;DHT22;34679;51.436;-2.518;2022-12-11T06:52:25;-0.70;99.90
48860;DHT22;34679;51.436;-2.518;2022-12-11T06:54:52;-0.60;99.90
48860;DHT22;34679;51.436;-2.518;2022-12-11T06:57:18;-0.70;99.90
48860;DHT22;34679;51.436;-2.518;2022-12-11T06:59:43;-0.70;99.90
48860;DHT22;34679;51.436;-2.518;2022-12-11T07:02:14;-0.60;99.90
48860;DHT22;34679;51.436;-2.518;2022-12-11T07:04:40;-0.60;99.90
48860;DHT22;34679;51.436;-2.518;2022-12-11T07:07:06;-0.60;99.90
48860;DHT22;34679;51.436;-2.518;2022-12-11T07:09:32;-0.60;99.90
48860;DHT22;34679;51.436;-2.518;2022-12-11T07:11:58;-0.60;99.90
48860;DHT22;34679;51.436;-2.518;2022-12-11T07:14:24;-0.60;99.90
48860;DHT22;34679;51.436;-2.518;2022-12-11T07:16:50;-0.60;99.90
48860;DHT22;34679;51.436;-2.518;2022-12-11T07:19:15;-0.60;99.90
48860;DHT22;34679;51.436;-2.518;2022-12-11T07:21:41;-0.60;99.90
48860;DHT22;34679;51.436;-2.518;2022-12-11T07:24:07;-0.50;99.90
48860;DHT22;34679;51.436;-2.518;2022-12-11T07:26:33;-0.60;99.90
48860;DHT22;34679;51.436;-2.518;2022-12-11T07:28:59;-0.50;99.90
48860;DHT22;34679;51.436;-2.518;2022-12-11T07:31:28;-0.50;99.90
48860;DHT22;34679;51.436;-2.518;2022-12-11T07:33:59;0.50;99.90
48860;DHT22;34679;51.436;-2.518;2022-12-11T07:36:26;-0.40;99.90
48860;DHT22;34679;51.436;-2.518;2022-12-11T07:38:52;-0.40;99.90
48860;DHT22;34679;51.436;-2.518;2022-12-11T07:41:18;-0.40;99.90
48860;DHT22;34679;51.436;-2.518;2022-12-11T07:43:44;-0.40;99.90
48860;DHT22;34679;51.436;-2.518;2022-12-11T07:46:16;-0.40;99.90
48860;DHT22;34679;51.436;-2.518;2022-12-11T07:48:43;-0.50;99.90
48860;DHT22;34679;51.436;-2.518;2022-12-11T07:51:15;-0.60;99.90
48860;DHT22;34679;51.436;-2.518;2022-12-11T07:53:44;-0.50;99.90
48860;DHT22;34679;51.436;-2.518;2022-12-11T07:56:11;-0.50;99.90
48860;DHT22;34679;51.436;-2.518;2022-12-11T07:58:37;-0.50;99.90
48860;DHT22;34679;51.436;-2.518;2022-12-11T08:01:14;-0.50;99.90
48860;DHT22;34679;51.436;-2.518;2022-12-11T08:03:40;-0.50;99.90
48860;DHT22;34679;51.436;-2.518;2022-12-11T08:06:07;-0.40;99.90
48860;DHT22;34679;51.436;-2.518;2022-12-11T08:08:32;-0.40;99.90
48860;DHT22;34679;51.436;-2.518;2022-12-11T08:11:02;-0.40;99.90
48860;DHT22;34679;51.436;-2.518;2022-12-11T08:13:29;-0.40;99.90
48860;DHT22;34679;51.436;-2.518;2022-12-11T08:15:54;-0.40;99.90
48860;DHT22;34679;51.436;-2.518;2022-12-11T08:18:20;-0.40;99.90
48860;DHT22;34679;51.436;-2.518;2022-12-11T08:20:46;-0.20;99.90
48860;DHT22;34679;51.436;-2.518;2022-12-11T08:23:12;-0.40;99.90
48860;DHT22;34679;51.436;-2.518;2022-12-11T08:25:37;-0.40;99.90
48860;DHT22;34679;51.436;-2.518;2022-12-11T08:28:03;-0.30;99.90
48860;DHT22;34679;51.436;-2.518;2022-12-11T08:30:29;-0.30;99.90
48860;DHT22;34679;51.436;-2.518;2022-12-11T08:32:55;-0.20;99.90
48860;DHT22;34679;51.436;-2.518;2022-12-11T08:35:20;-0.30;99.90
48860;DHT22;34679;51.436;-2.518;2022-12-11T08:37:46;-0.30;99.90
48860;DHT22;34679;51.436;-2.518;2022-12-11T08:40:12;-0.30;99.90
48860;DHT22;34679;51.436;-2.518;2022-12-11T08:42:38;-0.30;99.90
48860;DHT22;34679;51.436;-2.518;2022-12-11T08:45:04;-0.20;99.90
48860;DHT22;34679;51.436;-2.518;2022-12-11T08:47:30;-0.20;99.90
48860;DHT22;34679;51.436;-2.518;2022-12-11T08:49:56;-0.20;99.90
48860;DHT22;34679;51.436;-2.518;2022-12-11T08:52:22;-0.20;99.90
48860;DHT22;34679;51.436;-2.518;2022-12-11T08:54:48;-0.20;99.90
48860;DHT22;34679;51.436;-2.518;2022-12-11T08:57:14;-0.20;99.90
48860;DHT22;34679;51.436;-2.518;2022-12-11T08:59:39;-0.20;99.90
48860;DHT22;34679;51.436;-2.518;2022-12-11T09:02:05;-0.10;99.90
48860;DHT22;34679;51.436;-2.518;2022-12-11T09:04:32;1.00;99.90
48860;DHT22;34679;51.436;-2.518;2022-12-11T09:06:57;0.00;99.90
48860;DHT22;34679;51.436;-2.518;2022-12-11T09:09:23;0.00;99.90
48860;DHT22;34679;51.436;-2.518;2022-12-11T09:11:49;0.10;99.90
48860;DHT22;34679;51.436;-2.518;2022-12-11T09:14:14;0.10;99.90
48860;DHT22;34679;51.436;-2.518;2022-12-11T09:16:41;0.10;99.90
48860;DHT22;34679;51.436;-2.518;2022-12-11T09:19:10;0.10;99.90
48860;DHT22;34679;51.436;-2.518;2022-12-11T09:21:37;0.10;99.90
48860;DHT22;34679;51.436;-2.518;2022-12-11T09:24:03;0.20;99.90
48860;DHT22;34679;51.436;-2.518;2022-12-11T09:26:29;0.20;99.90
48860;DHT22;34679;51.436;-2.518;2022-12-11T09:28:55;0.30;99.90
48860;DHT22;34679;51.436;-2.518;2022-12-11T09:31:25;0.30;99.90
48860;DHT22;34679;51.436;-2.518;2022-12-11T09:33:53;0.20;99.90
48860;DHT22;34679;51.436;-2.518;2022-12-11T09:36:19;0.20;99.90
48860;DHT22;34679;51.436;-2.518;2022-12-11T09:38:45;0.30;99.90
48860;DHT22;34679;51.436;-2.518;2022-12-11T09:43:48;0.40;99.90
48860;DHT22;34679;51.436;-2.518;2022-12-11T09:46:16;0.40;99.90
48860;DHT22;34679;51.436;-2.518;2022-12-11T09:48:45;0.40;99.90
48860;DHT22;34679;51.436;-2.518;2022-12-11T09:51:24;0.40;99.90
48860;DHT22;34679;51.436;-2.518;2022-12-11T09:53:53;0.50;99.90
48860;DHT22;34679;51.436;-2.518;2022-12-11T10:12:21;1.00;99.90
48860;DHT22;34679;51.436;-2.518;2022-12-11T10:15:18;1.00;99.90
48860;DHT22;34679;51.436;-2.518;2022-12-11T10:17:47;1.00;99.90
48860;DHT22;34679;51.436;-2.518;2022-12-11T10:20:33;1.10;99.90
48860;DHT22;34679;51.436;-2.518;2022-12-11T10:23:02;1.20;99.90
48860;DHT22;34679;51.436;-2.518;2022-12-11T10:25:31;1.20;99.90
48860;DHT22;34679;51.436;-2.518;2022-12-11T10:28:11;1.20;99.90
48860;DHT22;34679;51.436;-2.518;2022-12-11T10:30:43;1.30;99.90
48860;DHT22;34679;51.436;-2.518;2022-12-11T10:35:41;1.20;99.90
48860;DHT22;34679;51.436;-2.518;2022-12-11T10:40:43;1.20;99.90
48860;DHT22;34679;51.436;-2.518;2022-12-11T10:43:09;1.10;99.90
48860;DHT22;34679;51.436;-2.518;2022-12-11T10:45:35;1.10;99.90
48860;DHT22;34679;51.436;-2.518;2022-12-11T10:48:09;0.90;99.90
48860;DHT22;34679;51.436;-2.518;2022-12-11T10:50:36;1.00;99.90
48860;DHT22;34679;51.436;-2.518;2022-12-11T10:53:02;1.10;99.90
48860;DHT22;34679;51.436;-2.518;2022-12-11T10:55:45;1.10;99.90
48860;DHT22;34679;51.436;-2.518;2022-12-11T10:58:19;1.10;99.90
48860;DHT22;34679;51.436;-2.518;2022-12-11T11:01:06;1.10;99.90
48860;DHT22;34679;51.436;-2.518;2022-12-11T11:03:35;1.10;99.90
48860;DHT22;34679;51.436;-2.518;2022-12-11T11:06:21;1.10;99.90
48860;DHT22;34679;51.436;-2.518;2022-12-11T11:08:49;1.20;99.90
48860;DHT22;34679;51.436;-2.518;2022-12-11T11:11:23;1.30;99.90
48860;DHT22;34679;51.436;-2.518;2022-12-11T11:13:49;1.40;99.90
48860;DHT22;34679;51.436;-2.518;2022-12-11T11:16:17;1.50;99.90
48860;DHT22;34679;51.436;-2.518;2022-12-11T11:18:53;1.60;99.90
48860;DHT22;34679;51.436;-2.518;2022-12-11T11:21:21;1.70;99.90
48860;DHT22;34679;51.436;-2.518;2022-12-11T11:23:48;1.70;99.90
48860;DHT22;34679;51.436;-2.518;2022-12-11T11:26:14;1.90;99.90
48860;DHT22;34679;51.436;-2.518;2022-12-11T11:28:47;2.00;99.90
48860;DHT22;34679;51.436;-2.518;2022-12-11T11:31:14;2.00;99.90
48860;DHT22;34679;51.436;-2.518;2022-12-11T11:34:00;2.10;99.90
48860;DHT22;34679;51.436;-2.518;2022-12-11T11:36:31;2.10;99.90
48860;DHT22;34679;51.436;-2.518;2022-12-11T11:44:23;2.20;99.90
48860;DHT22;34679;51.436;-2.518;2022-12-11T11:47:16;2.20;99.90
48860;DHT22;34679;51.436;-2.518;2022-12-11T11:49:46;2.20;99.90
48860;DHT22;34679;51.436;-2.518;2022-12-11T11:52:23;2.20;99.90
48860;DHT22;34679;51.436;-2.518;2022-12-11T11:55:19;2.20;99.90
48860;DHT22;34679;51.436;-2.518;2022-12-11T11:57:53;2.10;99.90
48860;DHT22;34679;51.436;-2.518;2022-12-11T12:00:26;2.00;99.90
48860;DHT22;34679;51.436;-2.518;2022-12-11T12:03:00;2.00;99.90
48860;DHT22;34679;51.436;-2.518;2022-12-11T12:05:34;2.00;99.90
48860;DHT22;34679;51.436;-2.518;2022-12-11T12:13:53;2.10;99.90
48860;DHT22;34679;51.436;-2.518;2022-12-11T12:21:56;2.30;99.90
48860;DHT22;34679;51.436;-2.518;2022-12-11T12:27:12;2.40;99.90
48860;DHT22;34679;51.436;-2.518;2022-12-11T12:37:48;2.40;99.90
48860;DHT22;34679;51.436;-2.518;2022-12-11T12:48:35;1.90;99.90
48860;DHT22;34679;51.436;-2.518;2022-12-11T12:51:02;1.80;99.90
48860;DHT22;34679;51.436;-2.518;2022-12-11T12:53:32;1.70;99.90
48860;DHT22;34679;51.436;-2.518;2022-12-11T12:56:00;1.60;99.90
48860;DHT22;34679;51.436;-2.518;2022-12-11T12:58:38;1.70;99.90
48860;DHT22;34679;51.436;-2.518;2022-12-11T13:01:12;1.90;99.90
48860;DHT22;34679;51.436;-2.518;2022-12-11T13:04:22;1.90;99.90
48860;DHT22;34679;51.436;-2.518;2022-12-11T13:06:51;2.00;99.90
48860;DHT22;34679;51.436;-2.518;2022-12-11T13:09:25;2.00;99.90
48860;DHT22;34679;51.436;-2.518;2022-12-11T13:11:53;2.00;99.90
48860;DHT22;34679;51.436;-2.518;2022-12-11T13:14:24;2.00;99.90
48860;DHT22;34679;51.436;-2.518;2022-12-11T13:19:44;2.20;99.90
48860;DHT22;34679;51.436;-2.518;2022-12-11T13:22:27;2.20;99.90
48860;DHT22;34679;51.436;-2.518;2022-12-11T13:24:59;2.20;99.90
48860;DHT22;34679;51.436;-2.518;2022-12-11T13:27:36;2.20;99.90
48860;DHT22;34679;51.436;-2.518;2022-12-11T13:33:13;2.20;99.90
48860;DHT22;34679;51.436;-2.518;2022-12-11T13:35:39;2.10;99.90
48860;DHT22;34679;51.436;-2.518;2022-12-11T13:38:13;2.00;99.90
48860;DHT22;34679;51.436;-2.518;2022-12-11T13:40:42;1.90;99.90
48860;DHT22;34679;51.436;-2.518;2022-12-11T13:43:21;1.90;99.90
48860;DHT22;34679;51.436;-2.518;2022-12-11T13:45:49;1.90;99.90
48860;DHT22;34679;51.436;-2.518;2022-12-11T13:48:37;2.00;99.90
48860;DHT22;34679;51.436;-2.518;2022-12-11T13:51:04;1.90;99.90
48860;DHT22;34679;51.436;-2.518;2022-12-11T13:53:31;1.90;99.90
48860;DHT22;34679;51.436;-2.518;2022-12-11T13:56:06;1.80;99.90
48860;DHT22;34679;51.436;-2.518;2022-12-11T13:58:39;1.90;99.90
48860;DHT22;34679;51.436;-2.518;2022-12-11T14:03:39;2.10;99.90
48860;DHT22;34679;51.436;-2.518;2022-12-11T14:06:10;2.10;99.90
48860;DHT22;34679;51.436;-2.518;2022-12-11T14:08:38;2.20;99.90
48860;DHT22;34679;51.436;-2.518;2022-12-11T14:11:07;2.10;99.90
48860;DHT22;34679;51.436;-2.518;2022-12-11T14:13:38;2.00;99.90
48860;DHT22;34679;51.436;-2.518;2022-12-11T14:16:05;1.90;99.90
48860;DHT22;34679;51.436;-2.518;2022-12-11T14:18:32;1.90;99.90
48860;DHT22;34679;51.436;-2.518;2022-12-11T14:21:04;2.00;99.90
48860;DHT22;34679;51.436;-2.518;2022-12-11T14:23:36;1.90;99.90
48860;DHT22;34679;51.436;-2.518;2022-12-11T14:26:03;1.90;99.90
48860;DHT22;34679;51.436;-2.518;2022-12-11T14:28:41;1.90;99.90
48860;DHT22;34679;51.436;-2.518;2022-12-11T14:31:07;2.00;99.90
48860;DHT22;34679;51.436;-2.518;2022-12-11T14:33:36;1.90;99.90
48860;DHT22;34679;51.436;-2.518;2022-12-11T14:36:03;1.90;99.90
48860;DHT22;34679;51.436;-2.518;2022-12-11T14:38:35;1.90;99.90
48860;DHT22;34679;51.436;-2.518;2022-12-11T14:41:10;1.80;99.90
48860;DHT22;34679;51.436;-2.518;2022-12-11T14:43:50;1.80;99.90
48860;DHT22;34679;51.436;-2.518;2022-12-11T14:46:22;1.70;99.90
48860;DHT22;34679;51.436;-2.518;2022-12-11T14:48:56;1.70;99.90
48860;DHT22;34679;51.436;-2.518;2022-12-11T14:51:29;1.70;99.90
48860;DHT22;34679;51.436;-2.518;2022-12-11T14:53:56;1.70;99.90
48860;DHT22;34679;51.436;-2.518;2022-12-11T14:56:24;1.70;99.90
48860;DHT22;34679;51.436;-2.518;2022-12-11T14:58:59;1.60;99.90
48860;DHT22;34679;51.436;-2.518;2022-12-11T15:01:30;1.60;99.90
48860;DHT22;34679;51.436;-2.518;2022-12-11T15:04:21;1.60;99.90
48860;DHT22;34679;51.436;-2.518;2022-12-11T15:06:50;1.50;99.90
48860;DHT22;34679;51.436;-2.518;2022-12-11T15:09:33;1.70;99.90
48860;DHT22;34679;51.436;-2.518;2022-12-11T15:12:16;1.60;99.90
48860;DHT22;34679;51.436;-2.518;2022-12-11T15:14:54;1.60;99.90
48860;DHT22;34679;51.436;-2.518;2022-12-11T15:17:22;1.50;99.90
48860;DHT22;34679;51.436;-2.518;2022-12-11T15:19:52;1.50;99.90
48860;DHT22;34679;51.436;-2.518;2022-12-11T15:22:21;1.60;99.90
48860;DHT22;34679;51.436;-2.518;2022-12-11T15:24:52;1.60;99.90
48860;DHT22;34679;51.436;-2.518;2022-12-11T15:27:36;1.60;99.90
48860;DHT22;34679;51.436;-2.518;2022-12-11T15:32:45;1.60;99.90
48860;DHT22;34679;51.436;-2.518;2022-12-11T15:35:26;1.60;99.90
48860;DHT22;34679;51.436;-2.518;2022-12-11T15:37:58;1.60;99.90
48860;DHT22;34679;51.436;-2.518;2022-12-11T15:40:26;1.60;99.90
48860;DHT22;34679;51.436;-2.518;2022-12-11T15:42:53;1.60;99.90
48860;DHT22;34679;51.436;-2.518;2022-12-11T15:45:24;1.60;99.90
48860;DHT22;34679;51.436;-2.518;2022-12-11T15:47:53;1.60;99.90
48860;DHT22;34679;51.436;-2.518;2022-12-11T15:50:24;1.50;99.90
48860;DHT22;34679;51.436;-2.518;2022-12-11T15:52:52;1.50;99.90
48860;DHT22;34679;51.436;-2.518;2022-12-11T15:55:19;1.50;99.90
48860;DHT22;34679;51.436;-2.518;2022-12-11T15:57:49;1.50;99.90
48860;DHT22;34679;51.436;-2.518;2022-12-11T16:00:17;1.50;99.90
48860;DHT22;34679;51.436;-2.518;2022-12-11T16:02:44;1.50;99.90
48860;DHT22;34679;51.436;-2.518;2022-12-11T16:05:14;1.50;99.90
48860;DHT22;34679;51.436;-2.518;2022-12-11T16:07:42;1.50;99.90
48860;DHT22;34679;51.436;-2.518;2022-12-11T16:10:16;1.50;99.90
48860;DHT22;34679;51.436;-2.518;2022-12-11T16:12:51;1.40;99.90
48860;DHT22;34679;51.436;-2.518;2022-12-11T16:15:17;1.50;99.90
48860;DHT22;34679;51.436;-2.518;2022-12-11T16:17:43;1.40;99.90
48860;DHT22;34679;51.436;-2.518;2022-12-11T16:20:10;1.40;99.90
48860;DHT22;34679;51.436;-2.518;2022-12-11T16:22:37;1.40;99.90
48860;DHT22;34679;51.436;-2.518;2022-12-11T16:25:05;1.40;99.90
48860;DHT22;34679;51.436;-2.518;2022-12-11T16:27:33;1.50;99.90
48860;DHT22;34679;51.436;-2.518;2022-12-11T16:30:02;1.40;99.90
48860;DHT22;34679;51.436;-2.518;2022-12-11T16:32:29;1.50;99.90
48860;DHT22;34679;51.436;-2.518;2022-12-11T16:34:57;1.40;99.90
48860;DHT22;34679;51.436;-2.518;2022-12-11T16:37:26;1.40;99.90
48860;DHT22;34679;51.436;-2.518;2022-12-11T16:39:52;1.40;99.90
48860;DHT22;34679;51.436;-2.518;2022-12-11T16:42:18;1.50;99.90
48860;DHT22;34679;51.436;-2.518;2022-12-11T16:44:44;1.40;99.90
48860;DHT22;34679;51.436;-2.518;2022-12-11T16:47:10;1.40;99.90
48860;DHT22;34679;51.436;-2.518;2022-12-11T16:49:35;1.40;99.90
48860;DHT22;34679;51.436;-2.518;2022-12-11T16:52:01;1.40;99.90
48860;DHT22;34679;51.436;-2.518;2022-12-11T16:54:27;1.50;99.90
48860;DHT22;34679;51.436;-2.518;2022-12-11T16:56:52;1.40;99.90
48860;DHT22;34679;51.436;-2.518;2022-12-11T16:59:18;1.40;99.90
48860;DHT22;34679;51.436;-2.518;2022-12-11T17:01:44;1.40;99.90
48860;DHT22;34679;51.436;-2.518;2022-12-11T17:04:10;1.40;99.90